Time;durP1;ratioP1;P1;durP2;ratioP2;P2;SDS_P1;SDS_P2;PMS_P1;PMS_P2;Temp;Humidity;BMP_temperature;BMP_pressure;BME280_temperature;BME280_humidity;BME280_pressure;Samples;Min_cycle;Max_cycle;Signal;HPM_P1;HPM_P2
2022/07/12 00:01:25;;;;;;;2.12;1.40;;;19.30;67.30;;;;;;948759;145;27380;-76
2022/07/12 00:03:52;;;;;;;1.70;1.30;;;19.40;67.30;;;;;;952036;145;27380;-76
2022/07/12 00:06:18;;;;;;;1.07;1.02;;;19.40;67.30;;;;;;949523;145;27306;-75
2022/07/12 00:08:45;;;;;;;1.20;1.10;;;19.40;67.20;;;;;;952011;145;27426;-75
2022/07/12 00:11:12;;;;;;;0.93;0.93;;;19.40;66.30;;;;;;949778;145;27415;-75
2022/07/12 00:13:38;;;;;;;1.05;1.05;;;19.50;67.10;;;;;;954035;145;27319;-75
2022/07/12 00:16:05;;;;;;;0.70;0.70;;;19.50;67.10;;;;;;952232;145;27337;-75
2022/07/12 00:18:31;;;;;;;0.80;0.80;;;19.50;67.10;;;;;;950779;145;27331;-75
2022/07/12 00:20:58;;;;;;;1.07;0.85;;;19.50;67.10;;;;;;952634;145;27280;-75
2022/07/12 00:23:25;;;;;;;0.80;0.80;;;19.50;67.10;;;;;;953050;145;27299;-75
2022/07/12 00:25:51;;;;;;;0.70;0.70;;;19.50;67.10;;;;;;950647;145;27349;-76
2022/07/12 00:28:18;;;;;;;0.82;0.82;;;19.50;67.10;;;;;;951337;145;27232;-75
2022/07/12 00:30:44;;;;;;;1.27;0.80;;;19.50;67.20;;;;;;949902;145;27360;-75
2022/07/12 00:33:11;;;;;;;0.80;0.80;;;19.50;67.20;;;;;;949378;145;27412;-75
2022/07/12 00:35:38;;;;;;;1.02;1.00;;;19.50;67.20;;;;;;952910;145;27262;-76
2022/07/12 00:38:04;;;;;;;0.95;0.80;;;19.50;67.30;;;;;;952373;145;27296;-76
2022/07/12 00:40:31;;;;;;;0.60;0.60;;;19.50;67.40;;;;;;953775;145;27462;-76
2022/07/12 00:42:57;;;;;;;0.78;0.78;;;19.50;67.70;;;;;;952030;145;27341;-77
2022/07/12 00:45:24;;;;;;;0.82;0.82;;;19.50;67.70;;;;;;930667;149;28847;-76
2022/07/12 00:47:50;;;;;;;0.80;0.80;;;19.50;67.70;;;;;;945717;146;27412;-75
2022/07/12 00:50:17;;;;;;;0.57;0.57;;;19.50;67.70;;;;;;944019;146;27902;-76
2022/07/12 00:52:47;;;;;;;0.70;0.70;;;19.50;67.80;;;;;;945638;146;27345;-76
2022/07/12 00:55:13;;;;;;;1.10;1.00;;;19.40;67.80;;;;;;948308;147;27439;-76
2022/07/12 00:57:41;;;;;;;0.80;0.80;;;19.40;67.90;;;;;;946905;147;27400;-76
2022/07/12 01:00:06;;;;;;;0.80;0.80;;;19.40;68.00;;;;;;946375;147;27352;-76
2022/07/12 01:02:33;;;;;;;1.40;0.57;;;19.40;68.10;;;;;;946013;147;27447;-77
2022/07/12 01:05:00;;;;;;;0.80;0.80;;;19.40;68.20;;;;;;947903;147;27349;-75
2022/07/12 01:07:26;;;;;;;0.80;0.80;;;19.40;68.30;;;;;;947465;147;27457;-75
2022/07/12 01:09:55;;;;;;;0.78;0.78;;;19.40;68.40;;;;;;946142;147;27352;-75
2022/07/12 01:12:22;;;;;;;0.93;0.88;;;19.40;68.40;;;;;;946691;147;27307;-73
2022/07/12 01:14:48;;;;;;;0.72;0.70;;;19.40;68.40;;;;;;946641;147;27355;-73
2022/07/12 01:17:15;;;;;;;0.70;0.70;;;19.40;68.50;;;;;;947268;147;27280;-73
2022/07/12 01:19:42;;;;;;;0.80;0.80;;;19.40;68.50;;;;;;947228;147;27373;-73
2022/07/12 01:22:08;;;;;;;0.62;0.62;;;19.40;68.60;;;;;;948801;147;27342;-74
2022/07/12 01:24:35;;;;;;;0.93;0.93;;;19.40;68.60;;;;;;946690;147;27417;-73
2022/07/12 01:27:01;;;;;;;0.72;0.72;;;19.40;68.60;;;;;;946396;147;27447;-73
2022/07/12 01:29:28;;;;;;;0.68;0.68;;;19.40;68.80;;;;;;946842;147;27406;-73
2022/07/12 01:31:55;;;;;;;1.10;0.95;;;19.40;68.90;;;;;;948754;147;27490;-73
2022/07/12 01:34:21;;;;;;;0.88;0.82;;;19.40;68.90;;;;;;947338;147;27446;-73
2022/07/12 01:36:48;;;;;;;0.60;0.60;;;19.40;69.10;;;;;;946078;147;27373;-73
2022/07/12 01:39:14;;;;;;;0.62;0.62;;;19.40;69.00;;;;;;946704;147;27417;-73
2022/07/12 01:41:41;;;;;;;0.60;0.60;;;19.40;69.10;;;;;;948707;147;27413;-74
2022/07/12 01:44:07;;;;;;;0.80;0.70;;;19.40;69.10;;;;;;944799;147;27318;-75
2022/07/12 01:46:34;;;;;;;0.88;0.88;;;19.40;70.00;;;;;;940768;147;27357;-75
2022/07/12 01:49:01;;;;;;;0.80;0.80;;;19.30;69.10;;;;;;940266;148;27318;-74
2022/07/12 01:51:27;;;;;;;0.75;0.75;;;19.30;69.20;;;;;;942474;147;27318;-74
2022/07/12 01:53:54;;;;;;;0.40;0.40;;;19.30;69.20;;;;;;940815;148;27358;-74
2022/07/12 01:56:20;;;;;;;0.50;0.50;;;19.20;69.20;;;;;;941872;148;27469;-75
2022/07/12 01:58:47;;;;;;;0.60;0.60;;;19.10;69.20;;;;;;940673;148;27389;-74
2022/07/12 02:01:14;;;;;;;0.93;0.93;;;19.10;69.30;;;;;;940215;148;27426;-74
2022/07/12 02:03:40;;;;;;;0.90;0.90;;;19.10;69.60;;;;;;940929;148;27335;-73
2022/07/12 02:06:07;;;;;;;0.75;0.75;;;19.00;69.60;;;;;;940775;148;27367;-74
2022/07/12 02:08:33;;;;;;;0.90;0.90;;;18.90;69.80;;;;;;941192;148;27642;-73
2022/07/12 02:11:00;;;;;;;0.90;0.90;;;18.90;70.00;;;;;;940439;148;27337;-75
2022/07/12 02:13:27;;;;;;;1.15;0.90;;;18.80;70.10;;;;;;941684;148;27826;-75
2022/07/12 02:15:53;;;;;;;1.75;1.20;;;18.80;70.10;;;;;;940754;148;28260;-75
2022/07/12 02:18:20;;;;;;;1.32;1.22;;;18.70;70.30;;;;;;939165;148;27436;-75
2022/07/12 02:20:46;;;;;;;1.07;1.07;;;18.60;70.20;;;;;;939582;148;27380;-75
2022/07/12 02:23:13;;;;;;;1.98;1.20;;;18.60;70.30;;;;;;940070;148;27782;-76
2022/07/12 02:25:40;;;;;;;1.10;1.10;;;18.50;70.30;;;;;;938987;148;27382;-76
2022/07/12 02:28:06;;;;;;;1.20;1.20;;;18.40;70.70;;;;;;941770;147;28849;-75
2022/07/12 02:30:33;;;;;;;1.10;1.10;;;18.30;70.60;;;;;;941085;148;27333;-75
2022/07/12 02:32:59;;;;;;;1.20;1.07;;;18.10;70.60;;;;;;940735;148;27302;-75
2022/07/12 02:35:26;;;;;;;1.20;1.20;;;18.00;70.60;;;;;;939626;148;27722;-75
2022/07/12 02:37:52;;;;;;;1.17;1.07;;;17.90;70.90;;;;;;941564;148;27381;-75
2022/07/12 02:43:04;;;;;;;1.45;0.98;;;17.70;71.40;;;;;;940975;148;27366;-75
2022/07/12 02:45:30;;;;;;;1.40;1.22;;;17.50;71.60;;;;;;939554;148;27343;-75
2022/07/12 02:47:57;;;;;;;1.12;1.12;;;17.40;72.00;;;;;;941942;147;27417;-75
2022/07/12 02:50:23;;;;;;;1.40;1.30;;;17.30;72.20;;;;;;940722;148;27378;-75
2022/07/12 02:52:50;;;;;;;1.20;1.10;;;17.20;72.50;;;;;;938638;148;27407;-75
2022/07/12 02:55:16;;;;;;;1.43;1.40;;;17.10;72.80;;;;;;940976;148;27421;-75
2022/07/12 02:57:43;;;;;;;1.10;1.10;;;17.00;73.20;;;;;;941044;147;27347;-75
2022/07/12 03:00:10;;;;;;;1.30;1.13;;;16.90;73.50;;;;;;941015;148;27341;-75
2022/07/12 03:02:36;;;;;;;0.90;0.90;;;16.80;73.80;;;;;;941286;148;27323;-74
2022/07/12 03:05:03;;;;;;;1.93;1.40;;;16.70;74.10;;;;;;939834;148;27408;-74
2022/07/12 03:07:29;;;;;;;2.00;1.60;;;16.60;74.50;;;;;;940311;147;27437;-74
2022/07/12 03:09:56;;;;;;;1.70;1.40;;;16.60;75.00;;;;;;940261;148;27368;-73
2022/07/12 03:12:23;;;;;;;1.60;1.50;;;16.50;75.20;;;;;;940111;148;27343;-73
2022/07/12 03:14:49;;;;;;;1.50;1.40;;;16.40;75.50;;;;;;938920;148;27452;-73
2022/07/12 03:17:16;;;;;;;1.40;1.30;;;16.30;75.70;;;;;;941551;148;27383;-73
2022/07/12 03:19:42;;;;;;;1.23;1.17;;;16.30;76.00;;;;;;942082;148;27389;-73
2022/07/12 03:22:09;;;;;;;1.20;1.20;;;16.30;76.40;;;;;;939490;148;27350;-73
2022/07/12 03:24:36;;;;;;;1.43;1.33;;;16.20;76.50;;;;;;938662;148;27313;-73
2022/07/12 03:27:02;;;;;;;6.63;1.70;;;16.10;76.70;;;;;;940967;148;27608;-73
2022/07/12 03:29:29;;;;;;;1.30;1.30;;;16.10;77.00;;;;;;941049;148;28616;-74
2022/07/12 03:31:55;;;;;;;1.47;1.33;;;16.00;77.30;;;;;;940823;148;27450;-73
2022/07/12 03:34:22;;;;;;;1.30;1.30;;;16.00;77.60;;;;;;940046;148;27875;-74
2022/07/12 03:36:49;;;;;;;2.10;1.20;;;15.90;77.90;;;;;;940160;147;27299;-73
2022/07/12 03:39:15;;;;;;;1.87;1.77;;;15.90;78.40;;;;;;938938;148;27428;-75
2022/07/12 03:41:42;;;;;;;1.23;1.20;;;15.80;78.60;;;;;;941360;148;27324;-74
2022/07/12 03:44:08;;;;;;;2.13;1.40;;;15.80;78.90;;;;;;939557;148;27384;-74
2022/07/12 03:46:35;;;;;;;1.40;1.30;;;15.70;79.10;;;;;;940357;147;27380;-74
2022/07/12 03:49:01;;;;;;;1.60;1.50;;;15.70;79.50;;;;;;938600;148;27360;-75
2022/07/12 03:51:28;;;;;;;1.80;1.70;;;15.70;80.00;;;;;;938753;148;27395;-75
2022/07/12 03:53:55;;;;;;;1.47;1.37;;;15.70;80.40;;;;;;938431;148;27494;-74
2022/07/12 03:59:06;;;;;;;1.60;1.50;;;15.70;80.90;;;;;;938129;148;27467;-73
2022/07/12 04:01:32;;;;;;;2.80;1.60;;;15.70;81.00;;;;;;939363;148;27340;-74
2022/07/12 04:03:59;;;;;;;1.43;1.33;;;15.70;81.50;;;;;;938336;148;27323;-75
2022/07/12 04:06:26;;;;;;;1.57;1.47;;;15.70;81.80;;;;;;938841;148;27466;-75
2022/07/12 04:08:52;;;;;;;1.83;1.73;;;15.70;82.20;;;;;;940913;148;27374;-74
2022/07/12 04:11:19;;;;;;;1.70;1.60;;;15.70;82.50;;;;;;939389;148;27482;-75
2022/07/12 04:13:45;;;;;;;1.70;1.60;;;15.70;82.70;;;;;;939601;148;27327;-75
2022/07/12 04:16:12;;;;;;;1.60;1.50;;;15.70;82.80;;;;;;940694;148;27375;-74
2022/07/12 04:18:38;;;;;;;1.70;1.60;;;15.70;83.00;;;;;;942767;147;27395;-74
2022/07/12 04:21:05;;;;;;;1.50;1.50;;;15.70;83.20;;;;;;941299;148;27398;-74
2022/07/12 04:23:32;;;;;;;1.70;1.60;;;15.80;83.40;;;;;;939573;148;27374;-74
2022/07/12 04:25:58;;;;;;;1.70;1.60;;;15.80;83.60;;;;;;939957;148;27458;-74
2022/07/12 04:28:25;;;;;;;2.30;1.77;;;15.90;82.90;;;;;;939289;148;27370;-74
2022/07/12 04:30:51;;;;;;;1.30;1.27;;;15.90;84.00;;;;;;940574;148;27283;-74
2022/07/12 04:33:18;;;;;;;1.80;1.70;;;15.90;84.20;;;;;;941502;148;27347;-74
2022/07/12 04:35:45;;;;;;;1.93;1.80;;;16.00;84.60;;;;;;942152;147;27376;-74
2022/07/12 04:38:11;;;;;;;1.75;1.65;;;16.00;85.00;;;;;;939644;148;27364;-74
2022/07/12 04:40:38;;;;;;;2.13;1.90;;;16.10;85.30;;;;;;938535;148;27394;-74
2022/07/12 04:43:04;;;;;;;1.67;1.57;;;16.10;85.60;;;;;;937546;148;27412;-74
2022/07/12 04:45:31;;;;;;;1.90;1.80;;;16.20;86.00;;;;;;940898;148;27448;-74
2022/07/12 04:47:58;;;;;;;1.90;1.80;;;16.30;86.40;;;;;;937588;149;27421;-74
2022/07/12 04:50:24;;;;;;;2.03;1.93;;;16.40;86.10;;;;;;939196;151;27403;-74
2022/07/12 04:52:51;;;;;;;2.03;1.93;;;16.50;87.10;;;;;;938301;150;28107;-74
2022/07/12 04:55:17;;;;;;;1.90;1.80;;;16.60;87.70;;;;;;938528;151;27453;-73
2022/07/12 04:57:44;;;;;;;2.20;2.10;;;16.70;89.10;;;;;;937886;149;27760;-73
2022/07/12 05:00:11;;;;;;;1.82;1.72;;;16.90;90.30;;;;;;938752;151;27334;-73
2022/07/12 05:02:37;;;;;;;1.95;1.85;;;17.20;91.00;;;;;;923581;151;27490;-73
2022/07/12 05:05:04;;;;;;;2.00;1.65;;;17.60;91.90;;;;;;938760;148;27437;-73
2022/07/12 05:07:30;;;;;;;2.08;1.90;;;18.10;92.90;;;;;;938175;148;27446;-73
2022/07/12 05:09:57;;;;;;;1.82;1.70;;;18.70;93.50;;;;;;948620;146;27289;-73
2022/07/12 05:12:23;;;;;;;2.20;1.95;;;19.50;93.80;;;;;;948769;147;27292;-74
2022/07/12 05:14:50;;;;;;;1.62;1.52;;;20.30;93.80;;;;;;949973;149;27360;-74
2022/07/12 05:17:17;;;;;;;1.98;1.75;;;21.30;93.30;;;;;;949382;149;27422;-74
2022/07/12 05:19:43;;;;;;;2.42;1.80;;;22.20;92.00;;;;;;947861;147;28456;-74
2022/07/12 05:22:10;;;;;;;1.70;1.60;;;23.20;90.20;;;;;;948535;149;27386;-77
2022/07/12 05:24:36;;;;;;;1.85;1.75;;;24.20;86.40;;;;;;948162;149;27386;-77
2022/07/12 05:27:04;;;;;;;1.47;1.47;;;25.20;81.50;;;;;;948982;149;27327;-77
2022/07/12 05:29:30;;;;;;;1.90;1.80;;;26.10;77.70;;;;;;948790;147;27337;-77
2022/07/12 05:31:57;;;;;;;2.02;1.55;;;27.00;74.20;;;;;;950254;149;27343;-76
2022/07/12 05:34:23;;;;;;;1.70;1.60;;;27.80;70.40;;;;;;951118;147;27318;-76
2022/07/12 05:36:50;;;;;;;1.37;1.32;;;28.50;68.30;;;;;;949582;147;27237;-76
2022/07/12 05:39:16;;;;;;;1.62;1.52;;;29.20;66.30;;;;;;949036;149;27683;-75
2022/07/12 05:41:43;;;;;;;1.75;1.65;;;29.80;64.40;;;;;;949129;149;27336;-76
2022/07/12 05:44:09;;;;;;;1.82;1.72;;;30.40;63.10;;;;;;948363;149;27341;-77
2022/07/12 05:46:37;;;;;;;1.50;1.40;;;31.00;61.20;;;;;;950177;145;27374;-77
2022/07/12 05:49:02;;;;;;;1.98;1.87;;;31.70;59.70;;;;;;950961;149;27345;-77
2022/07/12 05:54:14;;;;;;;2.12;1.32;;;32.80;57.70;;;;;;953640;147;27297;-76
2022/07/12 05:56:40;;;;;;;1.37;1.27;;;33.50;56.90;;;;;;951387;149;27471;-75
2022/07/12 05:59:07;;;;;;;1.12;1.12;;;34.10;55.80;;;;;;951324;146;27355;-78
2022/07/12 06:01:34;;;;;;;1.40;1.30;;;34.60;54.70;;;;;;952538;146;27342;-77
2022/07/12 06:04:01;;;;;;;1.67;1.57;;;35.20;53.70;;;;;;951408;146;27375;-78
2022/07/12 06:06:27;;;;;;;1.60;1.50;;;35.70;52.60;;;;;;951476;149;26179;-78
2022/07/12 06:08:53;;;;;;;1.47;1.37;;;36.20;51.50;;;;;;954180;146;26295;-79
2022/07/12 06:11:20;;;;;;;2.00;1.80;;;36.70;50.60;;;;;;953357;149;26268;-77
2022/07/12 06:13:47;;;;;;;1.67;1.57;;;37.10;49.60;;;;;;952505;147;26371;-78
2022/07/12 06:16:13;;;;;;;1.40;1.30;;;37.60;49.20;;;;;;951188;149;26202;-78
2022/07/12 06:18:40;;;;;;;1.32;1.20;;;38.00;48.50;;;;;;952911;147;26221;-78
2022/07/12 06:21:06;;;;;;;1.50;1.40;;;38.40;47.70;;;;;;952041;146;26182;-78
2022/07/12 06:23:33;;;;;;;1.35;1.27;;;38.90;47.10;;;;;;954910;149;26369;-77
2022/07/12 06:26:00;;;;;;;1.80;1.70;;;39.20;46.30;;;;;;951533;149;27811;-77
2022/07/12 06:28:26;;;;;;;1.57;1.47;;;39.70;45.70;;;;;;951485;149;26218;-77
2022/07/12 06:30:53;;;;;;;1.60;1.50;;;40.00;44.60;;;;;;951527;146;26327;-77
2022/07/12 06:33:19;;;;;;;1.60;1.50;;;40.30;43.80;;;;;;951963;147;26201;-77
2022/07/12 06:35:46;;;;;;;1.37;1.35;;;40.60;43.30;;;;;;950328;147;26341;-77
2022/07/12 06:38:12;;;;;;;1.80;1.40;;;40.90;43.00;;;;;;952131;149;26361;-77
2022/07/12 06:40:39;;;;;;;1.15;1.15;;;41.10;42.20;;;;;;953673;147;26231;-78
2022/07/12 06:43:12;;;;;;;1.45;1.35;;;41.40;42.20;;;;;;951097;147;26780;-76
2022/07/12 06:45:38;;;;;;;1.25;1.25;;;41.70;41.10;;;;;;951130;149;26283;-76
2022/07/12 06:48:05;;;;;;;5.08;1.20;;;42.00;40.40;;;;;;950706;148;26316;-76
2022/07/12 06:50:31;;;;;;;3.70;1.22;;;42.20;39.90;;;;;;951631;149;26240;-77
2022/07/12 06:52:58;;;;;;;1.37;1.30;;;42.40;39.50;;;;;;951375;146;26233;-77
2022/07/12 06:55:24;;;;;;;1.20;1.10;;;42.60;39.00;;;;;;952268;146;26225;-76
2022/07/12 06:57:51;;;;;;;1.00;1.00;;;42.90;38.60;;;;;;953864;146;27796;-76
2022/07/12 07:00:17;;;;;;;1.47;1.37;;;43.10;38.10;;;;;;951476;147;26331;-76
2022/07/12 07:02:44;;;;;;;1.00;1.00;;;43.40;37.80;;;;;;954048;147;26269;-76
2022/07/12 07:05:11;;;;;;;1.00;0.93;;;43.60;37.80;;;;;;951863;147;26347;-76
2022/07/12 07:07:37;;;;;;;1.92;1.20;;;43.90;36.70;;;;;;951965;147;26216;-76
2022/07/12 07:10:04;;;;;;;1.22;1.10;;;44.10;36.20;;;;;;952258;147;26234;-76
2022/07/12 07:12:31;;;;;;;0.90;0.90;;;44.20;35.80;;;;;;952713;149;26980;-76
2022/07/12 07:14:57;;;;;;;0.90;0.90;;;44.40;35.40;;;;;;953785;147;26314;-76
2022/07/12 07:17:24;;;;;;;0.90;0.88;;;44.50;35.20;;;;;;951363;149;26229;-76
2022/07/12 07:19:50;;;;;;;1.32;0.90;;;44.80;34.60;;;;;;953184;146;26201;-76
2022/07/12 07:22:18;;;;;;;0.85;0.80;;;44.90;34.20;;;;;;951997;149;26229;-76
2022/07/12 07:24:43;;;;;;;0.90;0.90;;;45.10;34.00;;;;;;952811;147;26330;-76
2022/07/12 07:27:10;;;;;;;0.75;0.72;;;45.20;33.70;;;;;;954456;149;26261;-76
2022/07/12 07:32:21;;;;;;;0.78;0.78;;;45.40;32.80;;;;;;952363;147;26222;-76
2022/07/12 07:34:48;;;;;;;1.47;1.02;;;45.60;32.70;;;;;;954106;147;26245;-73
2022/07/12 07:37:14;;;;;;;0.60;0.60;;;45.70;32.20;;;;;;953220;149;26233;-73
2022/07/12 07:39:41;;;;;;;1.00;0.70;;;45.90;32.00;;;;;;951617;147;26266;-73
2022/07/12 07:42:07;;;;;;;1.22;0.80;;;46.00;31.60;;;;;;951677;147;26252;-73
2022/07/12 07:44:34;;;;;;;1.32;0.98;;;46.20;31.60;;;;;;951910;149;26330;-73
2022/07/12 07:47:01;;;;;;;0.60;0.60;;;46.30;31.00;;;;;;951679;149;26220;-73
2022/07/12 07:49:27;;;;;;;0.60;0.60;;;46.50;30.80;;;;;;949181;145;26261;-76
2022/07/12 07:51:54;;;;;;;0.70;0.70;;;46.70;30.50;;;;;;950397;145;26273;-76
2022/07/12 07:54:20;;;;;;;0.70;0.70;;;46.90;30.00;;;;;;949845;145;26266;-76
2022/07/12 07:56:47;;;;;;;0.30;0.30;;;47.10;29.80;;;;;;953316;145;26376;-75
2022/07/12 07:59:14;;;;;;;0.40;0.40;;;47.20;29.50;;;;;;950909;145;26301;-76
2022/07/12 08:04:10;;;;;;;1.90;0.82;;;47.10;29.40;;;;;;974118;145;36087;-75
2022/07/12 08:06:37;;;;;;;0.55;0.40;;;47.40;29.10;;;;;;951865;148;27962;-75
2022/07/12 08:09:04;;;;;;;1.72;0.47;;;47.60;29.00;;;;;;953226;147;26240;-75
2022/07/12 08:11:30;;;;;;;0.55;0.55;;;47.70;28.50;;;;;;954883;147;27507;-75
2022/07/12 08:13:57;;;;;;;0.30;0.30;;;47.80;28.20;;;;;;951976;149;26204;-75
2022/07/12 08:16:23;;;;;;;0.30;0.30;;;47.80;28.00;;;;;;954989;148;26300;-75
2022/07/12 08:18:50;;;;;;;0.37;0.37;;;47.90;28.00;;;;;;952617;149;26217;-75
2022/07/12 08:21:17;;;;;;;0.50;0.50;;;48.00;28.00;;;;;;953296;149;26246;-75
2022/07/12 08:23:43;;;;;;;0.20;0.20;;;48.10;27.90;;;;;;952687;149;26337;-75
2022/07/12 08:26:10;;;;;;;0.30;0.30;;;48.30;27.70;;;;;;953826;149;26328;-75
2022/07/12 08:28:36;;;;;;;0.42;0.30;;;48.50;27.30;;;;;;954770;149;26181;-75
2022/07/12 08:31:03;;;;;;;0.20;0.20;;;48.70;27.00;;;;;;953839;149;26141;-75
2022/07/12 08:33:29;;;;;;;0.45;0.30;;;48.90;27.00;;;;;;951724;147;26220;-75
2022/07/12 08:35:56;;;;;;;0.30;0.20;;;49.10;27.00;;;;;;953381;149;26254;-76
2022/07/12 08:38:23;;;;;;;1.65;0.30;;;49.20;26.50;;;;;;952272;148;26228;-76
2022/07/12 08:40:49;;;;;;;0.10;0.10;;;49.40;26.30;;;;;;951807;149;26232;-75
2022/07/12 08:43:16;;;;;;;1.50;0.40;;;49.40;25.90;;;;;;953393;148;26250;-76
2022/07/12 08:45:43;;;;;;;0.40;0.37;;;49.40;25.70;;;;;;952389;147;26220;-76
2022/07/12 08:48:09;;;;;;;1.45;0.20;;;49.50;25.60;;;;;;952099;149;26248;-75
2022/07/12 08:50:39;;;;;;;0.40;0.23;;;49.40;25.30;;;;;;950933;145;26205;-76
2022/07/12 08:53:03;;;;;;;1.27;0.20;;;49.40;25.20;;;;;;936426;151;26340;-75
2022/07/12 08:55:30;;;;;;;0.20;0.10;;;49.40;25.20;;;;;;934452;151;26240;-76
2022/07/12 08:57:59;;;;;;;0.00;0.00;;;49.40;25.00;;;;;;937448;151;26201;-75
2022/07/12 09:00:25;;;;;;;0.93;0.30;;;49.50;25.00;;;;;;937881;150;26255;-76
2022/07/12 09:02:52;;;;;;;0.37;0.37;;;49.50;25.00;;;;;;936181;150;26625;-75
2022/07/12 09:05:18;;;;;;;0.20;0.20;;;49.70;25.00;;;;;;931618;151;26343;-76
2022/07/12 09:07:45;;;;;;;0.15;0.15;;;49.90;24.80;;;;;;931132;152;26241;-76
2022/07/12 09:10:12;;;;;;;0.30;0.30;;;50.20;24.70;;;;;;930883;151;26228;-75
2022/07/12 09:12:38;;;;;;;0.23;0.23;;;50.30;24.50;;;;;;932997;151;26269;-76
2022/07/12 09:15:11;;;;;;;0.00;0.00;;;50.40;24.30;;;;;;931790;151;26353;-75
2022/07/12 09:17:37;;;;;;;0.20;0.20;;;50.50;24.40;;;;;;931215;151;26245;-76
2022/07/12 09:20:04;;;;;;;0.20;0.20;;;50.60;24.20;;;;;;929984;152;26260;-76
2022/07/12 09:22:30;;;;;;;0.10;0.10;;;50.60;23.90;;;;;;930171;152;26284;-76
2022/07/12 09:24:57;;;;;;;0.20;0.13;;;50.60;23.60;;;;;;930339;152;26222;-76
2022/07/12 09:27:27;;;;;;;0.00;0.00;;;50.60;23.60;;;;;;930869;152;26388;-75
2022/07/12 09:29:53;;;;;;;0.45;0.20;;;50.50;23.60;;;;;;931200;152;26353;-76
2022/07/12 09:37:34;;;;;;;0.30;0.30;;;50.30;23.50;;;;;;931432;152;26289;-75
2022/07/12 09:40:00;;;;;;;0.30;0.30;;;50.20;23.40;;;;;;931412;151;26257;-76
2022/07/12 09:42:27;;;;;;;0.23;0.23;;;50.10;23.50;;;;;;933453;151;26297;-76
2022/07/12 09:44:54;;;;;;;0.60;0.60;;;49.90;23.20;;;;;;931468;151;26228;-76
2022/07/12 09:47:20;;;;;;;0.33;0.30;;;49.70;23.10;;;;;;931895;149;26241;-75
2022/07/12 09:49:47;;;;;;;0.95;0.50;;;49.30;23.10;;;;;;929411;151;26186;-75
2022/07/12 09:52:13;;;;;;;0.40;0.40;;;48.90;23.00;;;;;;931132;152;26344;-74
2022/07/12 09:54:40;;;;;;;0.40;0.40;;;48.10;22.80;;;;;;930509;151;26264;-75
2022/07/12 09:57:06;;;;;;;0.40;0.40;;;47.40;23.10;;;;;;931511;152;26335;-75
2022/07/12 09:59:33;;;;;;;0.65;0.60;;;46.60;23.50;;;;;;930884;151;26192;-75
2022/07/12 10:02:00;;;;;;;0.30;0.30;;;46.10;23.80;;;;;;931901;151;26885;-75
2022/07/12 10:04:26;;;;;;;0.30;0.30;;;45.60;24.10;;;;;;931313;152;26296;-75
2022/07/12 10:06:53;;;;;;;0.20;0.20;;;45.10;24.30;;;;;;933020;151;26289;-75
2022/07/12 10:09:19;;;;;;;1.25;0.47;;;44.70;24.30;;;;;;932197;152;26204;-75
2022/07/12 10:11:46;;;;;;;0.60;0.60;;;44.30;24.30;;;;;;931795;152;26924;-75
2022/07/12 10:14:13;;;;;;;0.72;0.47;;;43.80;24.50;;;;;;931794;151;26320;-75
2022/07/12 10:16:39;;;;;;;0.40;0.40;;;43.30;24.60;;;;;;932466;152;26229;-76
2022/07/12 10:19:21;;;;;;;0.33;0.33;;;42.70;24.70;;;;;;930902;151;26338;-75
2022/07/12 10:21:47;;;;;;;0.75;0.40;;;42.10;25.00;;;;;;929317;151;26353;-75
2022/07/12 10:24:32;;;;;;;0.30;0.30;;;41.60;25.00;;;;;;929703;151;26345;-75
2022/07/12 10:27:14;;;;;;;0.30;0.30;;;41.00;25.10;;;;;;929352;152;26225;-75
2022/07/12 10:29:43;;;;;;;0.55;0.40;;;40.40;25.50;;;;;;930067;151;26248;-75
2022/07/12 10:32:26;;;;;;;0.40;0.40;;;39.90;25.80;;;;;;926980;152;27967;-75
2022/07/12 10:34:57;;;;;;;0.42;0.30;;;39.50;26.00;;;;;;926688;152;27331;-75
2022/07/12 10:37:24;;;;;;;0.90;0.20;;;39.10;26.30;;;;;;931452;152;27846;-75
2022/07/12 10:40:11;;;;;;;0.72;0.50;;;38.70;26.70;;;;;;931909;152;27331;-75
2022/07/12 10:42:38;;;;;;;0.55;0.55;;;38.40;26.90;;;;;;930575;151;27307;-75
2022/07/12 10:45:14;;;;;;;0.30;0.30;;;38.00;27.10;;;;;;932202;150;27426;-75
2022/07/12 10:48:01;;;;;;;0.45;0.40;;;37.70;27.30;;;;;;930243;149;27349;-75
2022/07/12 10:50:44;;;;;;;0.40;0.37;;;37.40;27.40;;;;;;930427;150;27391;-75
2022/07/12 10:53:20;;;;;;;1.67;0.55;;;37.00;27.40;;;;;;931579;151;27335;-75
2022/07/12 10:56:04;;;;;;;0.30;0.30;;;36.50;27.50;;;;;;931212;151;27979;-75
2022/07/12 10:58:30;;;;;;;0.40;0.40;;;36.10;27.80;;;;;;929768;151;27419;-75
2022/07/12 11:00:57;;;;;;;0.40;0.40;;;35.60;28.00;;;;;;930854;151;27425;-75
2022/07/12 11:03:24;;;;;;;0.15;0.15;;;35.20;28.40;;;;;;931349;152;27791;-75
2022/07/12 11:05:50;;;;;;;0.40;0.37;;;34.80;28.70;;;;;;931048;151;27992;-75
2022/07/12 11:08:17;;;;;;;0.40;0.33;;;34.50;29.00;;;;;;931574;151;27327;-75
2022/07/12 11:10:55;;;;;;;0.40;0.37;;;34.20;29.40;;;;;;930952;152;27351;-75
2022/07/12 11:13:22;;;;;;;0.40;0.40;;;33.90;29.50;;;;;;929331;151;27329;-75
2022/07/12 11:15:57;;;;;;;0.40;0.40;;;33.70;29.80;;;;;;929528;151;27431;-75
2022/07/12 11:18:30;;;;;;;0.50;0.50;;;33.60;30.60;;;;;;931249;151;27317;-75
2022/07/12 11:20:59;;;;;;;1.27;0.40;;;33.40;30.30;;;;;;931674;152;27326;-75
2022/07/12 11:23:28;;;;;;;0.30;0.30;;;33.40;30.50;;;;;;932886;152;27402;-75
2022/07/12 11:25:58;;;;;;;0.37;0.30;;;33.20;30.50;;;;;;929028;151;27468;-75
2022/07/12 11:28:24;;;;;;;0.20;0.20;;;33.00;30.70;;;;;;929650;152;28369;-75
2022/07/12 11:30:51;;;;;;;0.50;0.40;;;32.90;31.00;;;;;;929953;152;27886;-75
2022/07/12 11:33:18;;;;;;;1.20;0.42;;;32.70;31.20;;;;;;930677;150;27312;-75
2022/07/12 11:35:47;;;;;;;0.10;0.10;;;32.50;31.30;;;;;;930796;151;27355;-75
2022/07/12 11:38:11;;;;;;;0.30;0.30;;;32.40;31.50;;;;;;929143;152;27467;-75
2022/07/12 11:40:37;;;;;;;0.47;0.40;;;32.30;31.20;;;;;;930345;152;27427;-75
2022/07/12 11:43:04;;;;;;;0.30;0.30;;;32.20;32.10;;;;;;930302;151;27291;-75
2022/07/12 11:45:31;;;;;;;0.30;0.30;;;32.20;32.40;;;;;;931470;149;27252;-75
2022/07/12 11:47:57;;;;;;;0.80;0.42;;;32.10;32.40;;;;;;929538;151;27433;-75
2022/07/12 11:50:24;;;;;;;0.33;0.33;;;32.10;32.40;;;;;;932272;151;27413;-75
2022/07/12 11:52:50;;;;;;;0.62;0.30;;;32.10;32.60;;;;;;932070;150;27421;-75
2022/07/12 11:57:37;;;;;;;0.30;0.30;;;32.10;32.80;;;;;;978486;143;37227;-75
2022/07/12 12:00:23;;;;;;;2.17;0.60;;;32.20;32.90;;;;;;968163;146;27307;-74
2022/07/12 12:02:48;;;;;;;0.80;0.30;;;32.20;33.00;;;;;;969188;146;27359;-75
2022/07/12 12:05:15;;;;;;;0.40;0.40;;;32.30;33.10;;;;;;966815;146;27306;-74
2022/07/12 12:07:41;;;;;;;0.72;0.72;;;32.30;33.20;;;;;;968829;146;27264;-75
2022/07/12 12:10:13;;;;;;;1.27;0.40;;;32.40;33.20;;;;;;969100;146;27400;-75
2022/07/12 12:12:44;;;;;;;0.25;0.25;;;32.40;33.00;;;;;;968593;146;27421;-75
2022/07/12 12:15:11;;;;;;;0.60;0.60;;;32.40;32.90;;;;;;967709;146;27292;-75
2022/07/12 12:17:37;;;;;;;0.35;0.35;;;32.50;33.00;;;;;;968191;146;27347;-75
2022/07/12 12:20:18;;;;;;;0.40;0.40;;;32.50;33.00;;;;;;966691;146;27372;-75
2022/07/12 12:22:45;;;;;;;0.28;0.28;;;32.40;32.80;;;;;;967950;146;27939;-75
2022/07/12 12:25:14;;;;;;;0.60;0.30;;;32.40;31.80;;;;;;964737;146;27262;-75
2022/07/12 12:27:49;;;;;;;0.10;0.10;;;32.40;32.40;;;;;;969190;146;27355;-75
2022/07/12 12:30:16;;;;;;;0.40;0.35;;;32.30;32.40;;;;;;968081;146;27318;-75
2022/07/12 12:32:45;;;;;;;0.40;0.37;;;32.20;32.60;;;;;;967280;146;27324;-74
2022/07/12 12:35:12;;;;;;;0.33;0.33;;;32.10;32.70;;;;;;967346;146;27340;-75
2022/07/12 12:37:40;;;;;;;0.30;0.30;;;32.00;32.60;;;;;;966946;146;27418;-75
2022/07/12 12:40:05;;;;;;;0.40;0.40;;;31.80;32.70;;;;;;969272;146;27384;-75
2022/07/12 12:42:32;;;;;;;0.40;0.40;;;31.70;32.80;;;;;;967927;146;28543;-75
2022/07/12 12:44:58;;;;;;;0.50;0.37;;;31.70;33.10;;;;;;966521;146;27221;-75
2022/07/12 12:47:30;;;;;;;0.40;0.30;;;31.60;33.20;;;;;;969112;146;27689;-75
2022/07/12 12:50:00;;;;;;;0.33;0.33;;;31.60;33.30;;;;;;967670;146;27445;-75
2022/07/12 12:52:27;;;;;;;0.50;0.30;;;31.40;33.30;;;;;;954917;146;27492;-75
2022/07/12 12:54:53;;;;;;;0.30;0.30;;;31.50;33.50;;;;;;950426;149;27283;-75
2022/07/12 12:57:20;;;;;;;0.28;0.28;;;31.40;33.60;;;;;;950746;148;27730;-75
2022/07/12 12:59:46;;;;;;;0.47;0.47;;;31.40;33.80;;;;;;955752;148;27351;-75
2022/07/12 13:02:13;;;;;;;0.45;0.45;;;31.40;33.90;;;;;;954661;148;27369;-75
2022/07/12 13:04:40;;;;;;;0.40;0.40;;;31.40;33.90;;;;;;956508;148;27346;-75
2022/07/12 13:07:06;;;;;;;0.20;0.20;;;31.30;33.70;;;;;;953057;148;27407;-75
2022/07/12 13:09:33;;;;;;;0.50;0.40;;;31.30;33.70;;;;;;953144;148;27334;-75